Time;durP1;ratioP1;P1;durP2;ratioP2;P2;SDS_P1;SDS_P2;PMS_P1;PMS_P2;Temp;Humidity;BMP_temperature;BMP_pressure;BME280_temperature;BME280_humidity;BME280_pressure;Samples;Min_cycle;Max_cycle;Signal;HPM_P1;HPM_P2
2024/01/22 00:00:00;;;;;;;7.07;5.00;;;;;;;4.97;100.00;100302.88;5013853;28;20065;-70
2024/01/22 00:02:45;;;;;;;7.78;4.38;;;;;;;5.01;100.00;100270.41;5010523;28;20427;-70
2024/01/22 00:05:31;;;;;;;8.80;5.00;;;;;;;5.03;100.00;100251.03;5012292;28;20049;-70
2024/01/22 00:08:17;;;;;;;9.65;4.85;;;;;;;5.03;100.00;100253.66;5013038;28;20046;-71
2024/01/22 00:11:03;;;;;;;8.38;4.65;;;;;;;5.07;100.00;100256.22;5013988;28;20074;-70
2024/01/22 00:13:49;;;;;;;7.93;4.82;;;;;;;5.07;100.00;100245.72;5013761;28;20422;-70
2024/01/22 00:16:39;;;;;;;10.98;5.35;;;;;;;5.07;100.00;100253.59;5011113;28;20730;-70
2024/01/22 00:19:25;;;;;;;10.00;4.55;;;;;;;5.09;100.00;100264.88;5013368;28;20041;-70
2024/01/22 00:22:11;;;;;;;11.00;4.70;;;;;;;5.11;100.00;100276.19;5015639;28;20045;-70
2024/01/22 00:24:56;;;;;;;8.10;5.03;;;;;;;5.15;100.00;100280.44;5013551;28;20065;-70
2024/01/22 00:27:42;;;;;;;8.23;4.28;;;;;;;5.17;100.00;100283.88;5015729;28;20489;-70
2024/01/22 00:30:28;;;;;;;8.10;4.47;;;;;;;5.22;100.00;100273.25;5015371;28;20048;-70
2024/01/22 00:33:13;;;;;;;7.00;4.60;;;;;;;5.25;100.00;100263.50;5016349;28;20044;-70
2024/01/22 00:35:59;;;;;;;7.47;4.60;;;;;;;5.31;100.00;100267.69;5017591;28;20050;-72
2024/01/22 00:38:45;;;;;;;9.15;4.88;;;;;;;5.38;100.00;100261.31;5018656;28;20041;-72
2024/01/22 00:41:31;;;;;;;7.15;4.57;;;;;;;5.48;100.00;100233.00;5020052;28;20120;-71
2024/01/22 00:44:16;;;;;;;10.20;5.22;;;;;;;5.58;100.00;100233.53;5019413;28;20139;-72
2024/01/22 00:47:02;;;;;;;8.43;4.95;;;;;;;5.65;100.00;100214.03;5015753;28;20524;-71
2024/01/22 00:49:48;;;;;;;10.50;4.85;;;;;;;5.72;100.00;100209.41;5016650;28;20095;-71
2024/01/22 00:52:34;;;;;;;8.07;4.78;;;;;;;5.77;100.00;100211.88;5015746;28;20046;-71
2024/01/22 00:55:19;;;;;;;7.25;4.55;;;;;;;5.83;100.00;100207.25;5015589;28;20164;-71
2024/01/22 00:58:05;;;;;;;7.53;4.38;;;;;;;5.87;100.00;100188.78;5014172;28;20045;-71
2024/01/22 01:00:51;;;;;;;8.60;4.40;;;;;;;5.89;100.00;100185.16;5013767;28;20045;-71
2024/01/22 01:03:37;;;;;;;8.20;4.35;;;;;;;5.91;100.00;100193.84;4995261;28;20135;-72
2024/01/22 01:06:22;;;;;;;9.55;4.80;;;;;;;5.94;100.00;100161.38;5014400;28;20101;-71
2024/01/22 01:09:08;;;;;;;7.53;4.30;;;;;;;5.94;100.00;100135.09;5010784;28;20030;-71
2024/01/22 01:11:54;;;;;;;6.70;4.55;;;;;;;5.94;100.00;100120.16;5010974;28;20103;-71
2024/01/22 01:14:39;;;;;;;9.52;4.60;;;;;;;5.96;100.00;100131.50;5015540;28;21025;-71
2024/01/22 01:17:25;;;;;;;7.55;4.72;;;;;;;5.97;100.00;100085.91;5009761;28;20025;-71
2024/01/22 01:20:11;;;;;;;7.05;4.65;;;;;;;6.01;100.00;100091.03;5013122;28;20049;-71
2024/01/22 01:22:57;;;;;;;8.85;4.55;;;;;;;6.02;100.00;100098.88;5015017;28;20037;-71
2024/01/22 01:25:43;;;;;;;8.32;4.28;;;;;;;6.05;100.00;100098.75;5013866;28;20037;-71
2024/01/22 01:28:28;;;;;;;9.82;4.60;;;;;;;6.08;100.00;100087.28;5014505;28;20034;-70
2024/01/22 01:31:14;;;;;;;6.80;4.20;;;;;;;6.13;100.00;100101.09;5016000;28;20045;-71
2024/01/22 01:34:00;;;;;;;8.38;5.22;;;;;;;6.20;100.00;100083.31;5013074;28;20038;-70
2024/01/22 01:36:46;;;;;;;10.80;5.05;;;;;;;6.22;100.00;100052.56;5012033;28;20467;-70
2024/01/22 01:39:31;;;;;;;8.25;4.30;;;;;;;6.28;100.00;100073.38;5013618;28;20648;-70
2024/01/22 01:42:17;;;;;;;10.80;4.75;;;;;;;6.33;100.00;100047.72;5016046;28;20741;-70
2024/01/22 01:45:03;;;;;;;10.18;4.80;;;;;;;6.41;100.00;100062.31;5013040;28;20522;-69
2024/01/22 01:47:50;;;;;;;7.95;3.83;;;;;;;6.47;100.00;100054.19;5012801;28;20052;-70
2024/01/22 01:50:36;;;;;;;7.70;4.85;;;;;;;6.52;100.00;100052.25;5000311;28;20484;-70
2024/01/22 01:53:22;;;;;;;10.80;4.47;;;;;;;6.55;100.00;100052.13;5006005;28;20038;-70
2024/01/22 01:56:08;;;;;;;7.63;4.88;;;;;;;6.56;100.00;100034.56;5012634;28;20041;-71
2024/01/22 01:58:55;;;;;;;7.88;3.47;;;;;;;6.59;100.00;100030.03;5004654;28;20037;-68
2024/01/22 02:01:40;;;;;;;10.02;4.05;;;;;;;6.63;100.00;100002.69;5013377;28;20666;-71
2024/01/22 02:04:26;;;;;;;7.40;4.28;;;;;;;6.68;100.00;100014.75;5014570;28;20096;-71
2024/01/22 02:07:12;;;;;;;8.55;4.30;;;;;;;6.71;100.00;100006.75;5012618;28;20643;-70
2024/01/22 02:09:58;;;;;;;7.00;3.85;;;;;;;6.76;100.00;99997.75;5007536;28;20034;-72
2024/01/22 02:12:43;;;;;;;6.85;3.72;;;;;;;6.78;100.00;99997.69;5009950;28;20080;-69
2024/01/22 02:15:30;;;;;;;6.22;3.65;;;;;;;6.76;100.00;99962.69;5006739;28;20057;-70
2024/01/22 02:18:15;;;;;;;7.45;4.00;;;;;;;6.79;100.00;99984.47;5009620;28;20107;-70
2024/01/22 02:21:01;;;;;;;6.78;3.85;;;;;;;6.81;100.00;99962.50;5008959;28;20026;-69
2024/01/22 02:23:47;;;;;;;9.38;3.63;;;;;;;6.85;100.00;99929.84;5014044;28;20049;-70
2024/01/22 02:26:33;;;;;;;6.93;3.58;;;;;;;6.87;100.00;99917.50;5008289;28;20041;-70
2024/01/22 02:29:18;;;;;;;5.32;3.90;;;;;;;6.90;100.00;99934.00;4997751;28;20068;-70
2024/01/22 02:32:04;;;;;;;6.38;4.00;;;;;;;6.91;100.00;99926.94;5009995;28;20037;-70
2024/01/22 02:34:50;;;;;;;5.22;3.40;;;;;;;6.95;100.00;99930.28;5010842;28;20041;-70
2024/01/22 02:37:38;;;;;;;6.40;3.55;;;;;;;6.96;100.00;99916.22;5011429;28;20744;-69
2024/01/22 02:40:24;;;;;;;5.15;3.45;;;;;;;6.97;100.00;99889.81;5008741;28;20039;-69
2024/01/22 02:43:10;;;;;;;7.68;3.58;;;;;;;6.97;100.00;99910.03;5009696;28;20103;-70
2024/01/22 02:45:56;;;;;;;8.57;4.43;;;;;;;7.00;100.00;99912.53;5009935;28;20083;-70
2024/01/22 02:48:42;;;;;;;5.53;3.15;;;;;;;6.98;100.00;99903.84;5006619;28;20056;-70
2024/01/22 02:51:27;;;;;;;5.28;3.33;;;;;;;7.00;100.00;99896.72;5010504;28;20765;-70
2024/01/22 02:54:13;;;;;;;4.95;3.30;;;;;;;7.00;100.00;99896.72;5012345;28;20579;-70
2024/01/22 02:56:59;;;;;;;8.02;3.83;;;;;;;7.02;100.00;99886.97;5012211;28;20049;-70
2024/01/22 02:59:44;;;;;;;6.53;4.15;;;;;;;6.99;100.00;99888.00;5011597;28;20653;-70
2024/01/22 03:02:30;;;;;;;5.65;3.67;;;;;;;7.00;100.00;99887.06;5013744;28;20517;-70
2024/01/22 03:05:16;;;;;;;8.07;5.25;;;;;;;7.00;100.00;99873.03;5011936;28;20731;-70
2024/01/22 03:08:04;;;;;;;7.82;3.80;;;;;;;7.03;100.00;99872.91;5010010;28;20064;-71
2024/01/22 03:10:50;;;;;;;6.80;3.75;;;;;;;7.04;100.00;99872.81;5011992;28;20068;-70
2024/01/22 03:13:36;;;;;;;5.28;3.08;;;;;;;7.05;100.00;99850.00;5010740;28;20707;-70
2024/01/22 03:16:21;;;;;;;5.90;3.28;;;;;;;7.05;100.00;99853.50;5010336;28;20435;-70
2024/01/22 03:19:07;;;;;;;5.70;3.08;;;;;;;7.09;100.00;99842.81;5007982;28;20041;-71
2024/01/22 03:21:53;;;;;;;4.35;3.08;;;;;;;7.11;100.00;99864.66;5010865;28;20463;-70
2024/01/22 03:24:39;;;;;;;5.00;3.13;;;;;;;7.11;100.00;99847.09;5011539;28;20588;-70
2024/01/22 03:27:24;;;;;;;5.25;3.17;;;;;;;7.10;100.00;99850.66;5013131;28;20032;-70
2024/01/22 03:30:11;;;;;;;8.18;3.25;;;;;;;7.14;100.00;99839.03;4998824;28;20037;-70
2024/01/22 03:32:57;;;;;;;4.38;2.80;;;;;;;7.15;100.00;99817.03;5012661;28;20045;-71
2024/01/22 03:35:42;;;;;;;4.88;2.40;;;;;;;7.17;100.00;99827.50;5010896;28;20538;-70
2024/01/22 03:38:28;;;;;;;2.80;2.13;;;;;;;7.20;100.00;99835.28;5008482;28;20033;-70
2024/01/22 03:41:14;;;;;;;3.42;2.83;;;;;;;7.25;100.00;99835.88;5010814;28;20061;-70
2024/01/22 03:44:02;;;;;;;4.53;2.50;;;;;;;7.28;100.00;99829.63;5009620;28;20171;-70
2024/01/22 03:46:48;;;;;;;2.67;2.00;;;;;;;7.29;100.00;99826.06;5008610;28;20030;-70
2024/01/22 03:49:34;;;;;;;3.78;2.03;;;;;;;7.31;100.00;99826.88;5003578;28;20049;-70
2024/01/22 03:52:19;;;;;;;4.82;2.80;;;;;;;7.32;100.00;99818.03;5009492;28;20053;-70
2024/01/22 03:55:10;;;;;;;5.88;3.10;;;;;;;7.32;100.00;99803.06;5012955;28;20096;-69
2024/01/22 03:57:56;;;;;;;4.07;2.70;;;;;;;7.30;100.00;99810.19;5009480;28;20310;-70
2024/01/22 04:00:41;;;;;;;3.88;2.00;;;;;;;7.30;100.00;99806.72;5011839;28;20046;-70
2024/01/22 04:03:27;;;;;;;4.65;2.17;;;;;;;7.30;100.00;99794.41;5009931;28;20141;-70
2024/01/22 04:06:13;;;;;;;3.03;2.03;;;;;;;7.29;100.00;99789.19;4998174;28;20041;-70
2024/01/22 04:08:59;;;;;;;3.92;2.35;;;;;;;7.27;100.00;99785.81;5001381;28;20045;-70
2024/01/22 04:11:45;;;;;;;3.00;2.17;;;;;;;7.27;100.00;99791.94;5014447;28;20068;-70
2024/01/22 04:14:30;;;;;;;2.92;1.80;;;;;;;7.26;100.00;99749.88;5009859;28;22837;-70
2024/01/22 04:17:16;;;;;;;4.45;2.17;;;;;;;7.25;100.00;99775.34;5013059;28;20060;-70
2024/01/22 04:20:03;;;;;;;3.00;2.00;;;;;;;7.27;100.00;99764.72;5011241;28;20049;-70
2024/01/22 04:22:51;;;;;;;3.25;2.20;;;;;;;7.29;100.00;99781.31;5005842;28;20061;-70
2024/01/22 04:25:37;;;;;;;4.00;2.00;;;;;;;7.27;100.00;99764.72;5011305;28;20038;-71
2024/01/22 04:28:22;;;;;;;3.92;2.35;;;;;;;7.28;100.00;99758.53;5014133;28;20030;-71
2024/01/22 04:31:08;;;;;;;2.35;2.00;;;;;;;7.28;100.00;99758.53;5013176;28;20037;-70
2024/01/22 04:33:54;;;;;;;4.15;2.10;;;;;;;7.32;100.00;99782.00;5016125;28;20040;-70
2024/01/22 04:36:40;;;;;;;2.25;1.90;;;;;;;7.31;100.00;99768.94;5001434;28;20107;-70
2024/01/22 04:39:26;;;;;;;2.28;2.08;;;;;;;7.32;100.00;99778.53;5013377;28;20981;-70
2024/01/22 04:42:12;;;;;;;2.28;2.08;;;;;;;7.33;100.00;99782.88;5016906;28;20041;-71
2024/01/22 04:44:57;;;;;;;2.10;1.75;;;;;;;7.29;100.00;99789.19;5008055;28;20037;-71
2024/01/22 04:47:43;;;;;;;3.45;1.75;;;;;;;7.28;100.00;99769.06;4999113;28;20111;-70
2024/01/22 04:50:29;;;;;;;2.63;1.80;;;;;;;7.25;100.00;99785.88;5014810;28;20044;-71
2024/01/22 04:53:15;;;;;;;2.47;2.28;;;;;;;7.25;100.00;99785.88;5014417;28;20179;-71
2024/01/22 04:56:01;;;;;;;1.95;1.83;;;;;;;7.23;100.00;99760.56;5012823;28;20096;-71
2024/01/22 04:58:46;;;;;;;4.32;2.13;;;;;;;7.22;100.00;99778.13;5016314;28;20037;-70
2024/01/22 05:01:32;;;;;;;3.40;1.92;;;;;;;7.22;100.00;99758.84;5016761;28;20116;-71
2024/01/22 05:04:18;;;;;;;2.15;1.88;;;;;;;7.23;100.00;99750.88;5013357;28;20757;-70
2024/01/22 05:07:07;;;;;;;3.35;2.28;;;;;;;7.24;100.00;99731.50;5018339;28;20347;-70
2024/01/22 05:09:56;;;;;;;3.22;2.13;;;;;;;7.28;100.00;99716.41;5013451;28;20499;-70
2024/01/22 05:12:42;;;;;;;2.67;1.88;;;;;;;7.28;100.00;99711.16;5017498;28;20864;-69
2024/01/22 05:15:27;;;;;;;1.90;1.80;;;;;;;7.30;100.00;99736.47;5014483;28;20097;-70
2024/01/22 05:18:13;;;;;;;1.95;1.75;;;;;;;7.30;100.00;99720.69;5014875;28;20041;-70
2024/01/22 05:20:59;;;;;;;1.70;1.60;;;;;;;7.32;100.00;99737.25;5014156;28;20099;-71
2024/01/22 05:23:45;;;;;;;3.15;1.88;;;;;;;7.35;100.00;99736.25;5015049;28;20045;-70
2024/01/22 05:26:30;;;;;;;2.13;1.90;;;;;;;7.35;100.00;99741.50;5015085;28;20041;-70
2024/01/22 05:29:16;;;;;;;2.22;1.48;;;;;;;7.36;100.00;99760.81;5015427;28;20115;-70
2024/01/22 05:32:02;;;;;;;3.75;1.85;;;;;;;7.39;100.00;99771.16;5014840;28;20042;-70
2024/01/22 05:34:48;;;;;;;1.98;1.77;;;;;;;7.39;100.00;99731.66;5009918;28;20484;-70
2024/01/22 05:37:34;;;;;;;2.17;1.52;;;;;;;7.39;100.00;99748.34;5010356;28;20057;-70
2024/01/22 05:40:19;;;;;;;3.13;2.13;;;;;;;7.41;100.00;99762.28;5005186;28;20432;-70
2024/01/22 05:43:05;;;;;;;2.00;1.80;;;;;;;7.45;100.00;99769.09;5014524;28;20044;-70
2024/01/22 05:45:54;;;;;;;4.18;1.98;;;;;;;7.46;100.00;99772.56;5022986;28;20119;-70
2024/01/22 05:48:40;;;;;;;3.63;1.85;;;;;;;7.45;100.00;99766.47;5009098;28;20128;-70
2024/01/22 05:51:25;;;;;;;2.78;2.13;;;;;;;7.42;100.00;99771.88;5012379;28;20128;-70
2024/01/22 05:54:11;;;;;;;2.72;2.13;;;;;;;7.43;100.00;99789.41;5013260;28;20068;-69
2024/01/22 05:56:57;;;;;;;2.78;1.80;;;;;;;7.45;100.00;99791.94;5011756;28;20068;-69
2024/01/22 05:59:43;;;;;;;2.35;1.60;;;;;;;7.46;100.00;99788.38;5012109;28;20068;-69
2024/01/22 06:02:29;;;;;;;4.68;1.73;;;;;;;7.47;100.00;99785.69;5011130;28;20036;-70
2024/01/22 06:05:14;;;;;;;3.78;1.73;;;;;;;7.52;100.00;99798.59;5015604;28;20596;-70
2024/01/22 06:08:00;;;;;;;2.80;1.92;;;;;;;7.55;100.00;99787.06;5014531;28;21710;-70
2024/01/22 06:10:46;;;;;;;3.45;2.05;;;;;;;7.55;100.00;99787.94;5010806;28;20100;-70
2024/01/22 06:13:32;;;;;;;6.40;2.10;;;;;;;7.56;100.00;99794.03;5010272;28;21001;-70
2024/01/22 06:16:17;;;;;;;6.47;1.60;;;;;;;7.58;100.00;99793.03;5010269;28;20037;-70
2024/01/22 06:19:03;;;;;;;4.95;1.40;;;;;;;7.69;100.00;99804.84;5008766;28;20050;-69
2024/01/22 06:21:49;;;;;;;5.30;1.60;;;;;;;7.87;100.00;99800.41;5014359;28;21908;-71
2024/01/22 06:24:36;;;;;;;9.10;1.70;;;;;;;8.02;100.00;99760.09;5005953;28;20028;-72
2024/01/22 06:27:22;;;;;;;8.88;1.60;;;;;;;8.13;100.00;99795.59;5011776;28;20206;-71
2024/01/22 06:30:08;;;;;;;8.73;2.13;;;;;;;8.15;100.00;99791.94;5013122;28;20048;-71
2024/01/22 06:32:54;;;;;;;9.95;1.92;;;;;;;8.20;100.00;99782.94;5011409;28;20045;-70
2024/01/22 06:35:39;;;;;;;13.80;3.80;;;;;;;8.22;100.00;99803.00;5010326;28;22143;-70
2024/01/22 06:38:28;;;;;;;19.08;3.85;;;;;;;8.26;100.00;99811.63;4998746;28;20633;-71
2024/01/22 06:41:15;;;;;;;12.27;3.95;;;;;;;8.27;100.00;99803.63;4996703;28;20121;-70
2024/01/22 06:44:01;;;;;;;9.98;2.40;;;;;;;8.25;100.00;99807.28;4998100;28;20045;-69
2024/01/22 06:46:47;;;;;;;12.18;3.10;;;;;;;8.24;100.00;99811.69;4997454;28;20038;-70
2024/01/22 06:49:33;;;;;;;16.20;3.80;;;;;;;8.25;100.00;99823.09;4992793;28;20042;-71
2024/01/22 06:52:19;;;;;;;15.27;3.22;;;;;;;8.26;100.00;99825.66;4981137;28;20033;-70
2024/01/22 06:55:05;;;;;;;11.00;2.63;;;;;;;8.29;100.00;99830.75;4985415;28;20038;-70
2024/01/22 06:57:54;;;;;;;19.95;3.35;;;;;;;8.29;100.00;99841.31;4984194;28;20046;-71
2024/01/22 07:00:40;;;;;;;24.92;5.80;;;;;;;8.28;100.00;99834.34;5000234;28;20053;-72
2024/01/22 07:03:26;;;;;;;22.10;4.55;;;;;;;8.29;100.00;99836.03;4997881;28;20655;-71
2024/01/22 07:06:12;;;;;;;26.25;6.53;;;;;;;8.29;100.00;99840.47;4995351;28;20066;-71
2024/01/22 07:08:58;;;;;;;25.20;6.25;;;;;;;8.26;100.00;99836.22;4982010;28;20046;-70
2024/01/22 07:11:44;;;;;;;32.15;4.93;;;;;;;8.26;100.00;99852.03;4969264;28;20042;-72
2024/01/22 07:14:30;;;;;;;28.83;5.45;;;;;;;8.23;100.00;99861.88;4980765;28;20049;-70
2024/01/22 07:17:16;;;;;;;22.55;5.38;;;;;;;8.23;100.00;99873.28;4993530;28;20033;-72
2024/01/22 07:20:02;;;;;;;20.30;4.50;;;;;;;8.22;100.00;99886.56;4979140;28;21494;-74
2024/01/22 07:22:48;;;;;;;24.15;4.13;;;;;;;8.17;100.00;99873.59;4965156;28;20042;-73
2024/01/22 07:25:36;;;;;;;29.50;5.45;;;;;;;8.15;100.00;99891.28;4994914;28;20034;-73
2024/01/22 07:28:22;;;;;;;23.08;6.05;;;;;;;8.14;100.00;99908.03;4994887;28;20045;-73
2024/01/22 07:31:08;;;;;;;19.52;3.92;;;;;;;8.14;100.00;99921.22;4997315;28;20065;-71
2024/01/22 07:33:54;;;;;;;18.17;4.28;;;;;;;8.08;100.00;99913.59;4995587;28;20110;-70
2024/01/22 07:36:42;;;;;;;22.65;4.68;;;;;;;8.05;100.00;99921.69;5006273;28;20092;-71
2024/01/22 07:39:28;;;;;;;28.15;5.30;;;;;;;8.00;100.00;99937.69;5013805;28;20055;-70
2024/01/22 07:42:14;;;;;;;31.00;5.97;;;;;;;8.01;100.00;99928.88;5012278;28;20067;-70
2024/01/22 07:45:00;;;;;;;23.85;4.50;;;;;;;8.05;100.00;99940.13;5011445;28;20041;-71
2024/01/22 07:47:46;;;;;;;28.65;4.88;;;;;;;8.10;100.00;99948.66;5011975;28;20445;-68
2024/01/22 07:50:32;;;;;;;23.48;4.78;;;;;;;8.15;100.00;99973.00;5021725;28;20041;-69
2024/01/22 07:53:18;;;;;;;27.63;5.10;;;;;;;8.15;100.00;99980.91;5014106;28;20038;-69
2024/01/22 07:56:04;;;;;;;28.88;4.28;;;;;;;8.12;100.00;99992.47;5006719;28;21257;-70
2024/01/22 07:58:50;;;;;;;19.45;3.65;;;;;;;8.08;100.00;99992.69;5013217;28;20048;-70
2024/01/22 08:01:36;;;;;;;27.27;4.00;;;;;;;8.04;100.00;99999.91;5011257;28;20060;-70
2024/01/22 08:04:21;;;;;;;22.38;4.88;;;;;;;8.00;100.00;99996.56;5008239;28;20068;-72
2024/01/22 08:07:07;;;;;;;14.60;3.35;;;;;;;7.95;100.00;100001.19;5011521;28;20139;-72
2024/01/22 08:09:53;;;;;;;25.85;6.70;;;;;;;7.92;100.00;99992.56;5014258;28;20041;-71
2024/01/22 08:12:39;;;;;;;22.17;4.40;;;;;;;7.85;100.00;100002.56;5013845;28;20072;-71
2024/01/22 08:15:24;;;;;;;24.13;3.63;;;;;;;7.77;100.00;100002.94;5009324;28;21758;-73
2024/01/22 08:18:11;;;;;;;19.73;3.53;;;;;;;7.69;100.00;100019.09;5009859;28;20139;-73
2024/01/22 08:20:57;;;;;;;18.80;3.65;;;;;;;7.66;100.00;100026.28;4994507;28;20131;-73
2024/01/22 08:23:42;;;;;;;26.05;4.22;;;;;;;7.65;100.00;100020.16;5009627;28;20034;-72
2024/01/22 08:26:28;;;;;;;22.55;4.40;;;;;;;7.65;100.00;100029.84;4995950;28;20590;-72
2024/01/22 08:29:15;;;;;;;30.70;4.60;;;;;;;7.64;100.00;100036.91;5011417;28;20045;-72
2024/01/22 08:32:00;;;;;;;30.63;4.90;;;;;;;7.67;100.00;100041.19;5012503;28;20740;-73
2024/01/22 08:34:46;;;;;;;37.42;5.38;;;;;;;7.63;100.00;100045.72;5008918;28;20033;-73
2024/01/22 08:37:33;;;;;;;28.35;4.80;;;;;;;7.60;100.00;100061.69;5008314;28;20034;-75
2024/01/22 08:40:23;;;;;;;36.05;6.10;;;;;;;7.59;100.00;100068.72;5009367;28;20041;-74
2024/01/22 08:43:10;;;;;;;29.67;5.07;;;;;;;7.56;100.00;100054.81;5011649;28;20550;-74
2024/01/22 08:45:55;;;;;;;36.65;5.47;;;;;;;7.56;100.00;100065.34;5015528;28;20739;-72
2024/01/22 08:48:41;;;;;;;28.42;5.05;;;;;;;7.57;100.00;100080.28;5014959;28;20161;-72
2024/01/22 08:51:28;;;;;;;27.08;5.05;;;;;;;7.54;100.00;100075.97;5012169;28;20069;-71
2024/01/22 08:54:13;;;;;;;30.52;5.35;;;;;;;7.50;100.00;100084.94;5013072;28;20048;-72
2024/01/22 08:57:00;;;;;;;28.80;5.07;;;;;;;7.47;100.00;100091.19;5014920;28;20037;-72
2024/01/22 08:59:45;;;;;;;29.77;4.80;;;;;;;7.45;100.00;100094.81;5011420;28;20672;-72
2024/01/22 09:02:31;;;;;;;27.25;5.72;;;;;;;7.43;100.00;100099.31;5016417;28;20050;-72
2024/01/22 09:05:17;;;;;;;36.40;8.45;;;;;;;7.42;100.00;100113.41;5014054;28;20500;-72
2024/01/22 09:08:04;;;;;;;36.78;8.75;;;;;;;7.41;100.00;100125.69;5013122;28;20987;-71
2024/01/22 09:10:49;;;;;;;33.70;7.60;;;;;;;7.42;100.00;100131.84;5030883;28;20083;-72
2024/01/22 09:13:38;;;;;;;22.08;4.72;;;;;;;7.38;100.00;100128.47;5016132;28;20044;-73
2024/01/22 09:16:24;;;;;;;28.08;4.88;;;;;;;7.35;100.00;100139.13;5013383;28;20093;-72
2024/01/22 09:19:10;;;;;;;23.95;4.30;;;;;;;7.31;100.00;100148.09;5016350;28;20152;-72
2024/01/22 09:21:57;;;;;;;29.48;4.80;;;;;;;7.31;100.00;100145.47;5017080;28;20037;-72
2024/01/22 09:24:42;;;;;;;28.88;4.65;;;;;;;7.32;100.00;100139.28;5016668;28;20056;-72
2024/01/22 09:27:28;;;;;;;26.13;5.00;;;;;;;7.32;100.00;100147.19;5016222;28;20033;-71
2024/01/22 09:30:15;;;;;;;32.05;4.57;;;;;;;7.35;100.00;100144.41;5016105;28;20120;-71
2024/01/22 09:33:00;;;;;;;16.85;3.72;;;;;;;7.35;100.00;100152.31;5013388;28;20033;-71
2024/01/22 09:35:46;;;;;;;25.88;4.68;;;;;;;7.35;100.00;100144.41;5016439;28;20056;-72
2024/01/22 09:38:32;;;;;;;18.00;4.03;;;;;;;7.34;100.00;100158.50;5014431;28;20049;-72
2024/01/22 09:41:18;;;;;;;20.17;3.50;;;;;;;7.33;100.00;100156.78;5013855;28;20045;-72
2024/01/22 09:44:06;;;;;;;22.40;3.83;;;;;;;7.35;100.00;100160.19;5011940;28;20037;-71
2024/01/22 09:46:57;;;;;;;23.08;3.60;;;;;;;7.35;100.00;100162.84;5012953;28;20049;-73
2024/01/22 09:49:46;;;;;;;17.77;3.30;;;;;;;7.37;100.00;100152.25;5000850;28;20154;-72
2024/01/22 09:52:34;;;;;;;22.30;3.88;;;;;;;7.37;100.00;100155.75;5012277;28;20037;-72
2024/01/22 09:55:21;;;;;;;15.65;3.33;;;;;;;7.39;100.00;100179.34;5015044;28;20193;-74
2024/01/22 09:58:09;;;;;;;19.48;3.55;;;;;;;7.38;100.00;100178.53;5013866;28;20046;-73
2024/01/22 10:00:55;;;;;;;8.93;2.85;;;;;;;7.34;100.00;100183.06;5026382;28;20033;-74
2024/01/22 10:03:41;;;;;;;18.35;3.28;;;;;;;7.31;100.00;100191.06;5011754;28;20790;-74
2024/01/22 10:06:28;;;;;;;14.57;3.22;;;;;;;7.29;100.00;100192.06;5013668;28;20107;-75
2024/01/22 10:09:15;;;;;;;17.65;3.40;;;;;;;7.26;100.00;100208.88;5013487;28;20033;-75
2024/01/22 10:12:01;;;;;;;18.38;3.25;;;;;;;7.25;100.00;100208.94;5013527;28;20072;-75
2024/01/22 10:14:47;;;;;;;22.05;3.65;;;;;;;7.23;100.00;100222.16;5014153;28;20040;-76
2024/01/22 10:17:33;;;;;;;22.70;4.18;;;;;;;7.25;100.00;100222.09;5011653;28;22003;-76
2024/01/22 10:20:23;;;;;;;19.42;3.28;;;;;;;7.26;100.00;100218.53;5012820;28;20076;-75
2024/01/22 10:23:11;;;;;;;18.30;3.50;;;;;;;7.31;100.00;100221.84;5013042;28;20064;-75
2024/01/22 10:26:05;;;;;;;21.27;3.60;;;;;;;7.35;100.00;100215.50;5001004;28;20104;-74
2024/01/22 10:28:52;;;;;;;11.55;2.50;;;;;;;7.38;100.00;100218.03;5028512;28;21573;-75
2024/01/22 10:31:58;;;;;;;15.98;2.58;;;;;;;7.39;100.00;100225.00;5012536;28;21922;-75
2024/01/22 10:34:51;;;;;;;20.42;3.53;;;;;;;7.44;100.00;100228.31;5023566;28;20045;-75
2024/01/22 10:37:37;;;;;;;12.40;2.70;;;;;;;7.47;100.00;100228.16;5013190;28;20620;-76
2024/01/22 10:40:29;;;;;;;17.02;3.13;;;;;;;7.50;100.00;100236.84;5015292;28;20053;-76
2024/01/22 10:43:29;;;;;;;11.17;2.33;;;;;;;7.52;100.00;100245.56;5024467;28;20046;-74
2024/01/22 10:46:15;;;;;;;15.23;2.42;;;;;;;7.51;100.00;100249.13;5015266;28;20046;-75
2024/01/22 10:49:01;;;;;;;14.18;2.38;;;;;;;7.53;100.00;100252.53;5011849;28;20065;-74
2024/01/22 10:51:47;;;;;;;12.43;2.08;;;;;;;7.53;100.00;100269.22;5010087;28;20048;-75
2024/01/22 10:54:34;;;;;;;19.75;3.03;;;;;;;7.55;100.00;100258.59;5009693;28;20041;-74
2024/01/22 10:57:37;;;;;;;18.20;3.03;;;;;;;7.54;100.00;100254.25;5010420;28;20156;-74
2024/01/22 11:00:24;;;;;;;11.00;2.50;;;;;;;7.53;100.00;100263.06;5011213;28;20038;-74
2024/01/22 11:03:13;;;;;;;13.63;2.88;;;;;;;7.57;100.00;100259.41;5010289;28;20084;-74
2024/01/22 11:06:01;;;;;;;20.00;3.42;;;;;;;7.58;100.00;100274.28;5008658;28;20041;-74
2024/01/22 11:08:52;;;;;;;18.38;3.00;;;;;;;7.58;100.00;100261.09;4994267;28;20179;-74
2024/01/22 11:11:40;;;;;;;12.93;2.22;;;;;;;7.58;100.00;100271.66;5007863;28;20041;-72
2024/01/22 11:14:26;;;;;;;12.63;2.28;;;;;;;7.59;100.00;100271.56;5012647;28;20110;-72
2024/01/22 11:17:13;;;;;;;13.30;2.50;;;;;;;7.59;100.00;100270.72;5009265;28;20104;-76
2024/01/22 11:20:18;;;;;;;11.48;2.47;;;;;;;7.60;100.00;100280.34;5009338;28;20037;-73
2024/01/22 11:23:08;;;;;;;12.05;1.98;;;;;;;7.59;100.00;100284.72;4999080;28;20503;-75
2024/01/22 11:26:03;;;;;;;10.43;2.20;;;;;;;7.59;100.00;100276.81;5010171;28;20155;-72
2024/01/22 11:29:08;;;;;;;10.07;1.95;;;;;;;7.57;100.00;100283.09;5010746;28;20030;-73
2024/01/22 11:31:56;;;;;;;16.77;3.35;;;;;;;7.58;100.00;100287.47;5011830;28;20037;-74
2024/01/22 11:34:43;;;;;;;11.57;2.63;;;;;;;7.58;100.00;100282.19;4997911;28;20124;-74
2024/01/22 11:37:34;;;;;;;19.20;3.38;;;;;;;7.55;100.00;100277.03;4992607;28;20132;-75
2024/01/22 11:40:53;;;;;;;10.90;2.38;;;;;;;7.55;100.00;100280.53;4992105;28;20052;-76
2024/01/22 11:43:39;;;;;;;14.73;2.30;;;;;;;7.56;100.00;100281.38;4982893;28;20578;-74
2024/01/22 11:46:25;;;;;;;14.20;2.25;;;;;;;7.54;100.00;100285.84;4993487;28;20092;-75
2024/01/22 11:49:11;;;;;;;11.68;1.90;;;;;;;7.55;100.00;100287.56;4971165;28;20032;-75
2024/01/22 11:51:57;;;;;;;11.93;2.28;;;;;;;7.52;100.00;100292.97;4990800;28;20520;-73
2024/01/22 11:55:00;;;;;;;16.05;2.30;;;;;;;7.51;100.00;100286.00;4978707;28;20595;-73
2024/01/22 11:57:46;;;;;;;15.83;2.27;;;;;;;7.53;100.00;100285.03;4994937;28;20461;-76
2024/01/22 12:00:32;;;;;;;9.65;2.92;;;;;;;7.53;100.00;100289.41;4998655;28;20311;-75
2024/01/22 12:03:25;;;;;;;9.65;2.42;;;;;;;7.55;100.00;100319.19;4994118;28;20556;-76
2024/01/22 12:06:10;;;;;;;14.38;2.22;;;;;;;7.55;100.00;100320.03;4987271;28;20038;-75
2024/01/22 12:08:59;;;;;;;13.48;2.60;;;;;;;7.55;100.00;100313.91;4985452;28;20476;-75
2024/01/22 12:11:55;;;;;;;10.88;2.00;;;;;;;7.53;100.00;100331.56;4982566;28;20290;-73
2024/01/22 12:14:40;;;;;;;13.60;2.65;;;;;;;7.50;100.00;100329.91;4995672;28;20113;-75
2024/01/22 12:17:26;;;;;;;13.52;3.05;;;;;;;7.48;100.00;100332.59;4999469;28;20420;-71
2024/01/22 12:20:12;;;;;;;18.15;3.65;;;;;;;7.47;100.00;100336.16;4994827;28;20042;-72
2024/01/22 12:23:00;;;;;;;13.13;2.30;;;;;;;7.48;100.00;100331.75;4994931;28;20030;-73
2024/01/22 12:25:46;;;;;;;14.43;2.85;;;;;;;7.52;100.00;100343.03;4994883;28;20030;-73
2024/01/22 12:28:31;;;;;;;13.75;2.40;;;;;;;7.51;100.00;100355.31;4997543;28;20111;-75
2024/01/22 12:31:19;;;;;;;13.73;2.70;;;;;;;7.53;100.00;100347.38;4988169;28;21025;-74
2024/01/22 12:34:10;;;;;;;19.10;3.22;;;;;;;7.53;100.00;100365.81;4987430;28;20044;-74
2024/01/22 12:36:56;;;;;;;13.05;2.55;;;;;;;7.49;100.00;100362.44;4990141;28;20117;-73
2024/01/22 12:39:44;;;;;;;14.27;2.47;;;;;;;7.48;100.00;100360.72;5014910;28;20140;-74
2024/01/22 12:42:30;;;;;;;16.10;3.13;;;;;;;7.47;100.00;100377.47;5012714;28;20033;-74
2024/01/22 12:45:20;;;;;;;16.02;3.13;;;;;;;7.45;100.00;100374.88;5015718;28;20945;-73
2024/01/22 12:48:06;;;;;;;12.43;2.72;;;;;;;7.44;100.00;100367.91;4999336;28;20889;-73
2024/01/22 12:50:52;;;;;;;9.02;2.30;;;;;;;7.44;100.00;100374.94;5012738;28;20038;-75
2024/01/22 12:53:44;;;;;;;15.20;2.85;;;;;;;7.40;100.00;100383.91;5013014;28;20132;-75